createdAt,value
2022-08-07T00:00:58.102Z,93.44
2022-08-07T00:02:36.830Z,93.65
2022-08-07T00:02:59.081Z,93.79
2022-08-07T00:03:58.066Z,93.59
2022-08-07T00:04:58.171Z,93.99
2022-08-07T00:05:58.040Z,93.89
2022-08-07T00:07:01.481Z,93.99
2022-08-07T00:08:00.526Z,94.20
2022-08-07T00:08:58.011Z,93.99
2022-08-07T00:10:26.416Z,94.10
2022-08-07T00:10:59.002Z,94.10
2022-08-07T00:11:58.737Z,93.99
2022-08-07T00:13:00.938Z,94.20
2022-08-07T00:13:57.937Z,94.20
2022-08-07T00:14:57.928Z,94.20
2022-08-07T00:15:57.910Z,94.10
2022-08-07T00:16:57.911Z,94.65
2022-08-07T00:17:57.888Z,95.26
2022-08-07T00:18:57.880Z,95.37
2022-08-07T00:20:01.197Z,95.37
2022-08-07T00:21:01.754Z,95.17
2022-08-07T00:22:02.294Z,95.67
2022-08-07T00:22:58.819Z,95.67
2022-08-07T00:23:57.800Z,95.72
2022-08-07T00:24:57.790Z,96.23
2022-08-07T00:26:00.034Z,96.84
2022-08-07T00:27:06.748Z,97.36
2022-08-07T00:27:58.806Z,97.46
2022-08-07T00:28:57.741Z,97.36
2022-08-07T00:29:57.719Z,97.25
2022-08-07T00:30:57.717Z,96.95
2022-08-07T00:31:57.718Z,96.84
2022-08-07T00:32:57.701Z,96.64
2022-08-07T00:33:57.679Z,96.64
2022-08-07T00:34:57.669Z,96.54
2022-08-07T00:35:57.649Z,96.23
2022-08-07T00:36:57.662Z,96.23
2022-08-07T00:37:57.619Z,96.44
2022-08-07T00:38:57.645Z,96.33
2022-08-07T00:39:57.662Z,96.54
2022-08-07T00:40:57.588Z,96.64
2022-08-07T00:42:01.754Z,96.64
2022-08-07T00:42:58.557Z,96.74
2022-08-07T00:44:00.471Z,97.30
2022-08-07T00:44:58.536Z,97.20
2022-08-07T00:45:57.518Z,96.89
2022-08-07T00:46:57.526Z,96.89
2022-08-07T00:48:09.129Z,97.09
2022-08-07T00:48:58.476Z,96.99
2022-08-07T00:50:19.338Z,97.09
2022-08-07T00:50:58.465Z,97.20
2022-08-07T00:51:58.455Z,97.30
2022-08-07T00:52:57.437Z,98.74
2022-08-07T00:53:57.414Z,98.83
2022-08-07T00:54:57.404Z,98.83
2022-08-07T00:56:03.300Z,98.83
2022-08-07T00:56:58.395Z,98.74
2022-08-07T00:57:57.365Z,98.63
2022-08-07T00:58:57.354Z,98.43
2022-08-07T00:59:57.336Z,98.63
2022-08-07T01:00:57.337Z,98.47
2022-08-07T01:01:57.962Z,98.37
2022-08-07T01:02:57.327Z,98.58
2022-08-07T01:04:00.456Z,98.37
2022-08-07T01:04:58.715Z,99.91
2022-08-07T01:05:57.255Z,99.99
2022-08-07T01:06:57.254Z,99.99
2022-08-07T01:07:57.244Z,99.99
2022-08-07T01:08:58.587Z,99.99
2022-08-07T01:10:05.988Z,99.99
2022-08-07T01:10:58.468Z,99.99
2022-08-07T01:12:10.140Z,99.99
2022-08-07T01:12:58.204Z,99.76
2022-08-07T01:13:57.155Z,99.45
2022-08-07T01:15:01.687Z,99.45
2022-08-07T01:16:05.548Z,99.45
2022-08-07T01:16:58.125Z,99.04
2022-08-07T01:17:57.123Z,98.83
2022-08-07T01:18:57.094Z,98.74
2022-08-07T01:19:57.083Z,98.68
2022-08-07T01:20:59.308Z,98.68
2022-08-07T01:21:57.052Z,98.37
2022-08-07T01:23:11.082Z,98.27
2022-08-07T01:23:58.037Z,98.27
2022-08-07T01:24:57.022Z,98.27
2022-08-07T01:25:57.011Z,98.16
2022-08-07T01:26:56.992Z,98.27
2022-08-07T01:27:57.002Z,98.21
2022-08-07T01:28:56.991Z,98.42
2022-08-07T01:29:56.960Z,98.62
2022-08-07T01:30:56.941Z,98.93
2022-08-07T01:31:59.229Z,98.72
2022-08-07T01:32:56.936Z,98.83
2022-08-07T01:33:57.489Z,98.83
2022-08-07T01:34:57.227Z,98.93
2022-08-07T01:36:06.333Z,99.34
2022-08-07T01:36:58.478Z,99.44
2022-08-07T01:37:56.870Z,99.24
2022-08-07T01:38:57.021Z,99.24
2022-08-07T01:39:57.247Z,99.03
2022-08-07T01:40:56.811Z,98.93
2022-08-07T01:42:07.510Z,99.03
2022-08-07T01:42:59.116Z,98.93
2022-08-07T01:43:56.780Z,98.93
2022-08-07T01:44:56.764Z,98.93
2022-08-07T01:45:56.750Z,98.83
2022-08-07T01:46:56.731Z,98.83
2022-08-07T01:48:20.069Z,99.13
2022-08-07T01:48:57.710Z,99.75
2022-08-07T01:49:56.701Z,99.99
2022-08-07T01:50:56.689Z,99.99
2022-08-07T01:52:03.913Z,99.85
2022-08-07T01:52:57.672Z,99.75
2022-08-07T01:54:12.341Z,99.99
2022-08-07T01:54:58.888Z,99.99
2022-08-07T01:55:56.619Z,99.85
2022-08-07T01:56:56.600Z,99.65
2022-08-07T01:58:05.759Z,99.54
2022-08-07T01:58:57.579Z,99.65
2022-08-07T01:59:56.560Z,99.54
2022-08-07T02:01:10.360Z,99.34
2022-08-07T02:02:02.464Z,99.13
2022-08-07T02:03:11.883Z,98.93
2022-08-07T02:03:57.528Z,99.08
2022-08-07T02:04:57.415Z,99.03
2022-08-07T02:05:59.352Z,98.87
2022-08-07T02:06:56.469Z,99.49
2022-08-07T02:07:56.479Z,99.49
2022-08-07T02:08:56.448Z,99.69
2022-08-07T02:09:58.533Z,99.59
2022-08-07T02:10:58.115Z,99.69
2022-08-07T02:12:04.708Z,99.59
2022-08-07T02:12:57.409Z,99.49
2022-08-07T02:14:02.441Z,99.49
2022-08-07T02:14:57.367Z,99.90
2022-08-07T02:15:56.357Z,99.84
2022-08-07T02:16:56.347Z,99.99
2022-08-07T02:17:56.414Z,99.99
2022-08-07T02:18:56.318Z,99.99
2022-08-07T02:20:07.136Z,99.99
2022-08-07T02:20:57.546Z,99.99
2022-08-07T02:21:58.780Z,99.99
2022-08-07T02:22:56.276Z,99.99
2022-08-07T02:23:56.256Z,99.99
2022-08-07T02:24:56.237Z,99.99
2022-08-07T02:26:30.759Z,99.99
2022-08-07T02:26:57.216Z,99.99
2022-08-07T02:27:56.245Z,99.99
2022-08-07T02:28:56.197Z,99.99
2022-08-07T02:29:56.176Z,99.99
2022-08-07T02:30:56.167Z,99.99
2022-08-07T02:31:57.094Z,99.99
2022-08-07T02:33:07.356Z,99.99
2022-08-07T02:34:03.092Z,99.99
2022-08-07T02:34:57.113Z,99.99
2022-08-07T02:36:30.136Z,99.99
2022-08-07T02:36:57.085Z,99.99
2022-08-07T02:37:56.085Z,99.99
2022-08-07T02:38:57.129Z,99.99
2022-08-07T02:40:12.081Z,99.99
2022-08-07T02:40:57.071Z,99.99
2022-08-07T02:41:56.563Z,99.99
2022-08-07T02:42:56.034Z,99.99
2022-08-07T02:43:55.993Z,99.99
2022-08-07T02:44:55.985Z,99.99
2022-08-07T02:45:58.144Z,99.99
2022-08-07T02:46:55.953Z,99.99
2022-08-07T02:47:55.972Z,99.99
2022-08-07T02:48:55.935Z,99.99
2022-08-07T02:49:59.722Z,99.99
2022-08-07T02:50:55.912Z,99.99
2022-08-07T02:51:55.893Z,99.99
2022-08-07T02:53:03.465Z,99.99
2022-08-07T02:53:56.873Z,99.99
2022-08-07T02:54:55.895Z,99.99
2022-08-07T02:56:03.388Z,99.99
2022-08-07T02:56:56.832Z,99.99
2022-08-07T02:57:55.834Z,99.99
2022-08-07T02:58:55.802Z,99.99
2022-08-07T03:00:01.247Z,99.99
2022-08-07T03:00:56.827Z,99.99
2022-08-07T03:01:55.818Z,99.99
2022-08-07T03:02:55.762Z,99.99
2022-08-07T03:03:56.340Z,99.99
2022-08-07T03:04:55.721Z,99.99
2022-08-07T03:05:55.713Z,99.99
2022-08-07T03:06:55.703Z,99.99
2022-08-07T03:08:07.419Z,99.99
2022-08-07T03:08:56.671Z,99.99
2022-08-07T03:09:55.671Z,99.99
2022-08-07T03:10:55.727Z,99.99
2022-08-07T03:12:02.554Z,99.99
2022-08-07T03:12:56.641Z,99.99
2022-08-07T03:13:57.504Z,99.99
2022-08-07T03:14:56.599Z,99.99
2022-08-07T03:15:58.448Z,99.99
2022-08-07T03:16:55.571Z,99.99
2022-08-07T03:17:55.580Z,99.99
2022-08-07T03:18:55.541Z,99.99
2022-08-07T03:19:55.666Z,99.99
2022-08-07T03:20:55.519Z,99.99
2022-08-07T03:21:55.509Z,99.99
2022-08-07T03:22:55.506Z,99.99
2022-08-07T03:24:19.501Z,99.99
2022-08-07T03:24:56.469Z,99.99
2022-08-07T03:25:58.348Z,99.99
2022-08-07T03:26:59.207Z,99.99
2022-08-07T03:28:09.202Z,99.99
2022-08-07T03:28:56.418Z,99.99
2022-08-07T03:29:55.458Z,99.99
2022-08-07T03:30:56.126Z,99.99
2022-08-07T03:31:55.379Z,99.99
2022-08-07T03:32:58.902Z,99.99
2022-08-07T03:33:55.360Z,99.99
2022-08-07T03:35:00.936Z,99.99
2022-08-07T03:35:56.328Z,99.99
2022-08-07T03:36:55.308Z,99.99
2022-08-07T03:37:55.430Z,99.99
2022-08-07T03:38:55.287Z,99.99
2022-08-07T03:40:07.305Z,99.99
2022-08-07T03:40:57.335Z,99.99
2022-08-07T03:41:55.247Z,99.99
2022-08-07T03:42:55.246Z,99.99
2022-08-07T03:43:57.300Z,99.99
2022-08-07T03:44:58.110Z,99.99
2022-08-07T03:45:55.196Z,99.99
2022-08-07T03:47:10.904Z,99.99
2022-08-07T03:47:56.187Z,99.99
2022-08-07T03:49:02.694Z,99.99
2022-08-07T03:49:56.145Z,99.99
2022-08-07T03:50:57.671Z,99.99
2022-08-07T03:52:01.087Z,99.99
2022-08-07T03:52:56.115Z,99.99
2022-08-07T03:54:33.024Z,99.99
2022-08-07T03:54:57.298Z,99.99
2022-08-07T03:56:03.962Z,99.99
2022-08-07T03:57:03.538Z,99.99
2022-08-07T03:58:08.698Z,99.99
2022-08-07T03:59:09.857Z,99.99
2022-08-07T04:00:01.701Z,99.99
2022-08-07T04:01:00.290Z,99.99
2022-08-07T04:01:55.022Z,99.99
2022-08-07T04:02:56.725Z,99.99
2022-08-07T04:03:55.485Z,99.99
2022-08-07T04:04:54.952Z,99.99
2022-08-07T04:05:58.785Z,99.99
2022-08-07T04:06:55.928Z,99.99
2022-08-07T04:07:54.924Z,99.99
2022-08-07T04:08:54.903Z,99.99
2022-08-07T04:09:54.883Z,99.99
2022-08-07T04:12:21.369Z,99.99
2022-08-07T04:12:25.061Z,99.99
2022-08-07T04:12:55.852Z,99.99
2022-08-07T04:14:33.032Z,99.99
2022-08-07T04:14:56.306Z,99.99
2022-08-07T04:15:54.802Z,99.99
2022-08-07T04:16:58.119Z,99.99
2022-08-07T04:18:57.824Z,99.99
2022-08-07T04:18:59.255Z,99.99
2022-08-07T04:19:55.766Z,99.99
2022-08-07T04:20:55.263Z,99.99
2022-08-07T04:22:04.839Z,99.99
2022-08-07T04:23:01.600Z,99.99
2022-08-07T04:24:03.119Z,99.99
2022-08-07T04:24:55.691Z,99.99
2022-08-07T04:25:54.681Z,99.99
2022-08-07T04:26:54.660Z,99.99
2022-08-07T04:28:00.623Z,99.99
2022-08-07T04:28:55.630Z,99.99
2022-08-07T04:30:01.565Z,99.99
2022-08-07T04:30:58.800Z,99.99
2022-08-07T04:32:03.231Z,99.99
2022-08-07T04:32:58.132Z,99.99
2022-08-07T04:33:55.128Z,99.99
2022-08-07T04:34:54.550Z,99.99
2022-08-07T04:35:54.549Z,99.99
2022-08-07T04:36:54.530Z,99.99
2022-08-07T04:38:06.517Z,99.99
2022-08-07T04:38:55.509Z,99.99
2022-08-07T04:39:54.546Z,99.99
2022-08-07T04:40:56.846Z,99.99
2022-08-07T04:41:54.479Z,99.99
2022-08-07T04:42:54.478Z,99.99
2022-08-07T04:44:14.770Z,99.99
2022-08-07T04:45:02.872Z,99.99
2022-08-07T04:46:00.856Z,99.99
2022-08-07T04:47:04.400Z,99.99
2022-08-07T04:48:01.027Z,99.99
2022-08-07T04:48:55.545Z,99.99
2022-08-07T04:49:57.765Z,99.99
2022-08-07T04:50:55.356Z,99.99
2022-08-07T04:51:54.356Z,99.99
2022-08-07T04:52:54.345Z,99.99
2022-08-07T04:54:05.842Z,99.99
2022-08-07T04:54:55.299Z,99.99
2022-08-07T04:58:11.442Z,99.99
2022-08-07T04:58:12.970Z,99.99
2022-08-07T04:58:16.567Z,99.99
2022-08-07T04:59:17.794Z,99.99
2022-08-07T05:00:09.762Z,99.99
2022-08-07T05:00:55.274Z,99.99
2022-08-07T05:01:54.225Z,99.99
2022-08-07T05:02:54.205Z,99.99
2022-08-07T05:04:06.566Z,99.99
2022-08-07T05:04:55.175Z,99.99
2022-08-07T05:05:57.468Z,99.99
2022-08-07T05:06:54.148Z,99.99
2022-08-07T05:07:55.545Z,99.99
2022-08-07T05:09:00.672Z,99.99
2022-08-07T05:09:55.117Z,99.99
2022-08-07T05:10:58.538Z,99.99
2022-08-07T05:11:56.914Z,99.99
2022-08-07T05:12:57.294Z,99.99
2022-08-07T05:14:54.135Z,99.99
2022-08-07T05:15:03.513Z,99.99
2022-08-07T05:15:55.032Z,99.68
2022-08-07T05:16:54.016Z,99.43
2022-08-07T05:18:00.888Z,99.02
2022-08-07T05:18:54.990Z,98.46
2022-08-07T05:19:53.976Z,97.95
2022-08-07T05:20:53.968Z,97.54
2022-08-07T05:22:00.713Z,97.13
2022-08-07T05:22:54.953Z,96.88
2022-08-07T05:23:53.929Z,96.58
2022-08-07T05:24:53.919Z,95.96
2022-08-07T05:26:13.307Z,96.12
2022-08-07T05:26:54.883Z,95.81
2022-08-07T05:28:02.894Z,95.41
2022-08-07T05:28:55.673Z,95.10
2022-08-07T05:29:53.852Z,94.85
2022-08-07T05:30:53.836Z,94.75
2022-08-07T05:31:53.824Z,95.01
2022-08-07T05:32:53.833Z,94.81
2022-08-07T05:34:04.641Z,94.50
2022-08-07T05:34:54.812Z,94.87
2022-08-07T05:35:55.152Z,94.52
2022-08-07T05:36:53.755Z,93.80
2022-08-07T05:38:08.905Z,92.84
2022-08-07T05:39:01.381Z,93.05
2022-08-07T05:40:17.370Z,92.49
2022-08-07T05:40:54.785Z,91.68
2022-08-07T05:42:02.188Z,91.74
2022-08-07T05:42:55.661Z,90.83
2022-08-07T05:44:11.799Z,90.72
2022-08-07T05:45:14.739Z,90.58
2022-08-07T05:45:56.446Z,89.87
2022-08-07T05:46:53.631Z,89.36
2022-08-07T05:48:01.313Z,89.42
2022-08-07T05:48:58.454Z,88.50
2022-08-07T05:49:53.588Z,89.07
2022-08-07T05:50:53.580Z,87.75
2022-08-07T05:51:53.560Z,87.14
2022-08-07T05:52:53.560Z,87.40
2022-08-07T05:54:13.997Z,86.69
2022-08-07T05:54:55.890Z,86.69
2022-08-07T05:56:03.478Z,87.57
2022-08-07T05:56:54.500Z,87.37
2022-08-07T05:57:53.491Z,86.05
2022-08-07T05:58:53.471Z,86.15
2022-08-07T05:59:57.527Z,85.70
2022-08-07T06:00:53.450Z,85.80
2022-08-07T06:01:53.475Z,85.60
2022-08-07T06:02:53.423Z,84.38
2022-08-07T06:03:58.584Z,84.85
2022-08-07T06:04:54.390Z,82.92
2022-08-07T06:05:56.611Z,83.59
2022-08-07T06:06:56.398Z,82.38
2022-08-07T06:08:29.165Z,82.68
2022-08-07T06:08:54.351Z,81.93
2022-08-07T06:10:05.098Z,83.65
2022-08-07T06:10:54.952Z,80.27
2022-08-07T06:11:53.290Z,79.67
2022-08-07T06:12:53.340Z,80.38
2022-08-07T06:14:11.988Z,80.44
2022-08-07T06:14:54.270Z,78.72
2022-08-07T06:15:53.241Z,78.92
2022-08-07T06:16:56.050Z,78.08
2022-08-07T06:17:53.527Z,79.29
2022-08-07T06:18:55.738Z,80.30
2022-08-07T06:20:03.682Z,79.66
2022-08-07T06:22:15.203Z,77.73
2022-08-07T06:22:16.021Z,78.75
2022-08-07T06:23:02.284Z,78.75
2022-08-07T06:24:38.061Z,79.21
2022-08-07T06:24:57.683Z,77.80
2022-08-07T06:25:54.619Z,77.66
2022-08-07T06:26:53.101Z,77.06
2022-08-07T06:28:00.951Z,78.57
2022-08-07T06:28:54.297Z,75.95
2022-08-07T06:29:53.062Z,75.51
2022-08-07T06:30:53.195Z,75.60
2022-08-07T06:31:53.030Z,76.11
2022-08-07T06:32:53.029Z,76.82
2022-08-07T06:33:53.020Z,77.12
2022-08-07T06:34:53.001Z,74.19
2022-08-07T06:36:13.088Z,75.71
2022-08-07T06:36:53.980Z,75.67
2022-08-07T06:37:53.073Z,77.28
2022-08-07T06:40:12.502Z,75.94
2022-08-07T06:40:13.514Z,74.08
2022-08-07T06:40:53.976Z,72.88
2022-08-07T06:42:02.179Z,72.34
2022-08-07T06:42:53.890Z,72.64
2022-08-07T06:44:01.792Z,72.31
2022-08-07T06:44:53.861Z,71.10
2022-08-07T06:45:55.372Z,72.71
2022-08-07T06:47:12.656Z,72.71
2022-08-07T06:47:58.779Z,71.91
2022-08-07T06:48:53.821Z,72.27
2022-08-07T06:49:58.869Z,69.96
2022-08-07T06:50:54.124Z,71.67
2022-08-07T06:51:53.898Z,72.57
2022-08-07T06:52:53.761Z,72.67
2022-08-07T06:55:29.550Z,69.42
2022-08-07T06:55:33.423Z,70.63
2022-08-07T06:56:01.249Z,69.09
2022-08-07T06:56:53.717Z,68.18
2022-08-07T06:57:56.922Z,68.08
2022-08-07T07:00:12.532Z,68.01
2022-08-07T07:00:14.348Z,67.71
2022-08-07T07:00:53.654Z,70.12
2022-08-07T07:01:52.664Z,70.09
2022-08-07T07:02:57.239Z,69.29
2022-08-07T07:03:56.302Z,68.75
2022-08-07T07:04:55.048Z,67.94
2022-08-07T07:06:04.356Z,67.31
2022-08-07T07:07:00.334Z,66.61
2022-08-07T07:07:59.880Z,65.50
2022-08-07T07:08:53.559Z,66.71
2022-08-07T07:09:52.540Z,67.28
2022-08-07T07:10:56.461Z,65.77
2022-08-07T07:12:08.960Z,64.57
2022-08-07T07:12:53.771Z,66.17
2022-08-07T07:13:57.905Z,65.74
2022-08-07T07:14:53.472Z,67.88
2022-08-07T07:15:52.461Z,66.35
2022-08-07T07:16:53.624Z,66.55
2022-08-07T07:17:52.578Z,64.74
2022-08-07T07:18:52.507Z,65.31
2022-08-07T07:19:57.315Z,63.70
2022-08-07T07:20:53.402Z,63.84
2022-08-07T07:22:11.777Z,63.84
2022-08-07T07:24:10.937Z,65.34
2022-08-07T07:24:11.295Z,66.24
2022-08-07T07:25:03.080Z,65.34
2022-08-07T07:26:34.513Z,65.31
2022-08-07T07:26:53.321Z,64.61
2022-08-07T07:28:01.921Z,63.67
2022-08-07T07:29:56.586Z,63.78
2022-08-07T07:30:07.532Z,62.97
2022-08-07T07:30:53.262Z,63.67
2022-08-07T07:31:52.253Z,61.44
2022-08-07T07:32:52.243Z,62.67
2022-08-07T07:33:56.991Z,64.18
2022-08-07T07:34:53.212Z,63.37
2022-08-07T07:36:04.803Z,61.54
2022-08-07T07:36:54.187Z,63.34
2022-08-07T07:38:02.197Z,61.91
2022-08-07T07:38:53.183Z,63.61
2022-08-07T07:39:55.341Z,61.71
2022-08-07T07:40:52.132Z,62.51
2022-08-07T07:42:13.067Z,60.08
2022-08-07T07:42:54.133Z,60.08
2022-08-07T07:44:14.382Z,59.88
2022-08-07T07:44:53.082Z,61.38
2022-08-07T07:46:36.836Z,61.68
2022-08-07T07:46:57.277Z,62.68
2022-08-07T07:47:53.455Z,60.28
2022-08-07T07:48:52.051Z,60.35
2022-08-07T07:50:36.672Z,62.35
2022-08-07T07:50:53.014Z,61.12
2022-08-07T07:51:58.181Z,61.09
2022-08-07T07:52:52.983Z,59.99
2022-08-07T07:53:52.776Z,60.29
2022-08-07T07:54:52.257Z,58.89
2022-08-07T07:55:54.997Z,59.30
2022-08-07T07:56:52.933Z,59.89
2022-08-07T07:57:54.032Z,57.87
2022-08-07T07:58:52.922Z,57.59
2022-08-07T07:59:53.932Z,59.17
2022-08-07T08:00:54.078Z,57.37
2022-08-07T08:02:02.666Z,56.57
2022-08-07T08:03:04.645Z,55.77
2022-08-07T08:04:10.574Z,56.79
2022-08-07T08:04:52.883Z,56.32
2022-08-07T08:05:55.329Z,59.82
2022-08-07T08:06:53.177Z,58.69
2022-08-07T08:08:00.841Z,56.70
2022-08-07T08:08:52.784Z,56.49
2022-08-07T08:10:05.073Z,57.50
2022-08-07T08:10:52.744Z,57.97
2022-08-07T08:12:02.200Z,55.44
2022-08-07T08:12:59.784Z,54.99
2022-08-07T08:13:53.951Z,55.35
2022-08-07T08:14:51.695Z,57.60
2022-08-07T08:15:58.672Z,58.13
2022-08-07T08:16:52.674Z,59.23
2022-08-07T08:17:57.302Z,61.01
2022-08-07T08:18:52.663Z,61.38
2022-08-07T08:20:16.943Z,59.85
2022-08-07T08:20:52.623Z,58.22
2022-08-07T08:22:02.523Z,56.85
2022-08-07T08:22:55.718Z,57.95
2022-08-07T08:23:51.587Z,58.92
2022-08-07T08:25:04.519Z,56.99
2022-08-07T08:25:54.559Z,56.57
2022-08-07T08:26:51.536Z,56.64
2022-08-07T08:27:56.500Z,57.21
2022-08-07T08:28:52.518Z,55.91
2022-08-07T08:29:54.517Z,55.94
2022-08-07T08:30:55.625Z,54.34
2022-08-07T08:32:17.550Z,55.04
2022-08-07T08:32:52.455Z,56.41
2022-08-07T08:33:55.793Z,53.52
2022-08-07T08:34:52.428Z,55.74
2022-08-07T08:35:51.446Z,55.41
2022-08-07T08:36:57.782Z,53.79
2022-08-07T08:37:59.557Z,54.66
2022-08-07T08:38:52.416Z,53.96
2022-08-07T08:39:55.221Z,53.94
2022-08-07T08:40:52.404Z,55.33
2022-08-07T08:41:57.285Z,52.76
2022-08-07T08:42:52.328Z,53.29
2022-08-07T08:43:56.069Z,53.72
2022-08-07T08:44:52.309Z,54.86
2022-08-07T08:45:58.935Z,55.07
2022-08-07T08:46:52.278Z,55.77
2022-08-07T08:47:52.871Z,55.71
2022-08-07T08:48:51.296Z,52.82
2022-08-07T08:50:04.998Z,52.74
2022-08-07T08:50:52.228Z,54.84
2022-08-07T08:52:14.226Z,54.61
2022-08-07T08:52:54.035Z,54.11
2022-08-07T08:53:51.218Z,54.19
2022-08-07T08:54:51.177Z,53.27
2022-08-07T08:55:55.267Z,51.27
2022-08-07T08:56:52.148Z,52.94
2022-08-07T08:57:51.138Z,53.94
2022-08-07T08:58:54.504Z,51.84
2022-08-07T08:59:51.120Z,51.42
2022-08-07T09:00:51.831Z,50.43
2022-08-07T09:01:51.115Z,51.20
2022-08-07T09:02:52.650Z,51.50
2022-08-07T09:03:52.857Z,51.79
2022-08-07T09:04:51.029Z,50.48
2022-08-07T09:05:51.020Z,49.88
2022-08-07T09:06:51.038Z,49.18
2022-08-07T09:07:57.642Z,51.20
2022-08-07T09:08:52.103Z,49.51
2022-08-07T09:09:56.826Z,49.53
2022-08-07T09:10:51.960Z,50.23
2022-08-07T09:11:56.211Z,52.32
2022-08-07T09:12:53.069Z,51.62
2022-08-07T09:13:50.938Z,52.59
2022-08-07T09:14:51.119Z,48.53
2022-08-07T09:16:25.763Z,49.93
2022-08-07T09:16:51.881Z,49.35
2022-08-07T09:17:59.698Z,50.55
2022-08-07T09:18:53.403Z,49.63
2022-08-07T09:19:55.438Z,50.13
2022-08-07T09:20:58.341Z,48.90
2022-08-07T09:22:22.409Z,49.87
2022-08-07T09:24:35.059Z,48.97
2022-08-07T09:24:49.117Z,48.18
2022-08-07T09:24:59.347Z,48.85
2022-08-07T09:25:53.448Z,48.73
2022-08-07T09:26:50.898Z,48.11
2022-08-07T09:28:00.240Z,45.90
2022-08-07T09:30:02.280Z,47.49
2022-08-07T09:30:06.307Z,47.59
2022-08-07T09:30:54.745Z,47.49
2022-08-07T09:31:50.692Z,46.77
2022-08-07T09:32:50.713Z,46.25
2022-08-07T09:33:56.680Z,44.56
2022-08-07T09:34:53.825Z,45.14
2022-08-07T09:36:03.369Z,44.32
2022-08-07T09:36:51.633Z,45.21
2022-08-07T09:37:54.044Z,43.10
2022-08-07T09:38:53.810Z,43.60
2022-08-07T09:39:54.050Z,45.51
2022-08-07T09:40:51.581Z,42.43
2022-08-07T09:41:59.078Z,42.23
2022-08-07T09:42:51.562Z,42.55
2022-08-07T09:44:05.726Z,43.86
2022-08-07T09:47:23.515Z,45.85
2022-08-07T09:47:42.585Z,44.71
2022-08-07T09:47:42.586Z,44.34
2022-08-07T09:48:03.029Z,44.89
2022-08-07T09:50:01.602Z,44.07
2022-08-07T09:50:01.836Z,43.48
2022-08-07T09:50:51.557Z,45.37
2022-08-07T09:52:09.973Z,43.30
2022-08-07T09:52:51.887Z,44.29
2022-08-07T09:53:57.019Z,42.99
2022-08-07T09:54:51.395Z,44.27
2022-08-07T09:56:03.862Z,44.06
2022-08-07T09:56:51.386Z,44.65
2022-08-07T09:57:50.385Z,43.40
2022-08-07T09:58:51.088Z,43.08
2022-08-07T10:00:01.308Z,45.45
2022-08-07T10:00:51.326Z,42.79
2022-08-07T10:01:54.147Z,43.56
2022-08-07T10:02:55.128Z,43.34
2022-08-07T10:04:06.676Z,41.39
2022-08-07T10:04:53.455Z,42.85
2022-08-07T10:06:00.305Z,44.34
2022-08-07T10:06:55.693Z,44.62
2022-08-07T10:07:53.390Z,44.99
2022-08-07T10:08:51.429Z,42.01
2022-08-07T10:09:59.180Z,42.13
2022-08-07T10:11:59.203Z,41.83
2022-08-07T10:12:01.394Z,44.99
2022-08-07T10:12:53.164Z,41.39
2022-08-07T10:14:01.277Z,40.80
2022-08-07T10:14:54.323Z,43.26
2022-08-07T10:15:50.136Z,42.55
2022-08-07T10:16:50.121Z,41.17
2022-08-07T10:18:01.494Z,43.66
2022-08-07T10:18:51.087Z,41.17
2022-08-07T10:19:50.095Z,40.50
2022-08-07T10:20:50.311Z,41.71
2022-08-07T10:22:14.101Z,41.53
2022-08-07T10:22:51.172Z,42.93
2022-08-07T10:24:05.439Z,41.83
2022-08-07T10:24:51.148Z,43.80
2022-08-07T10:25:52.913Z,44.18
2022-08-07T10:26:51.553Z,41.44
2022-08-07T10:27:51.126Z,43.74
2022-08-07T10:28:49.990Z,42.15
2022-08-07T10:29:51.511Z,42.77
2022-08-07T10:30:49.938Z,43.84
2022-08-07T10:31:49.929Z,41.75
2022-08-07T10:32:52.635Z,43.32
2022-08-07T10:34:06.461Z,42.51
2022-08-07T10:34:50.900Z,41.67
2022-08-07T10:35:53.407Z,40.36
2022-08-07T10:36:50.859Z,39.36
2022-08-07T10:38:09.839Z,39.06
2022-08-07T10:38:51.153Z,40.82
2022-08-07T10:40:02.578Z,39.95
2022-08-07T10:40:50.801Z,41.36
2022-08-07T10:41:53.053Z,41.63
2022-08-07T10:42:50.789Z,42.01
2022-08-07T10:43:49.780Z,41.39
2022-08-07T10:44:50.077Z,40.98
2022-08-07T10:45:58.402Z,39.40
2022-08-07T10:46:50.766Z,37.02
2022-08-07T10:47:54.096Z,41.49
2022-08-07T10:48:50.721Z,40.11
2022-08-07T10:49:51.254Z,41.00
2022-08-07T10:50:50.170Z,42.17
2022-08-07T10:52:02.161Z,38.90
2022-08-07T10:52:51.555Z,39.97
2022-08-07T10:53:49.696Z,39.20
2022-08-07T10:55:00.855Z,41.38
2022-08-07T10:55:50.623Z,37.71
2022-08-07T10:56:49.602Z,38.40
2022-08-07T10:57:56.026Z,38.84
2022-08-07T10:58:59.463Z,40.33
2022-08-07T10:59:50.582Z,40.70
2022-08-07T11:00:50.473Z,41.65
2022-08-07T11:01:51.535Z,37.77
2022-08-07T11:02:53.662Z,41.02
2022-08-07T11:03:55.126Z,36.67
2022-08-07T11:04:50.504Z,38.60
2022-08-07T11:05:50.845Z,38.92
2022-08-07T11:06:49.589Z,38.03
2022-08-07T11:07:58.900Z,41.52
2022-08-07T11:08:50.443Z,41.49
2022-08-07T11:10:09.340Z,39.20
2022-08-07T11:10:57.973Z,38.98
2022-08-07T11:11:51.787Z,37.87
2022-08-07T11:12:49.457Z,37.76
2022-08-07T11:14:43.608Z,37.12
2022-08-07T11:14:57.519Z,39.31
2022-08-07T11:15:54.707Z,37.93
2022-08-07T11:16:52.837Z,43.26
2022-08-07T11:17:53.842Z,38.40
2022-08-07T11:18:51.026Z,37.49
2022-08-07T11:19:49.323Z,38.39
2022-08-07T11:20:49.294Z,38.07
2022-08-07T11:21:49.283Z,38.17
2022-08-07T11:22:49.266Z,37.60
2022-08-07T11:23:49.953Z,37.45
2022-08-07T11:24:51.929Z,41.83
2022-08-07T11:25:50.319Z,40.12
2022-08-07T11:26:50.319Z,39.73
2022-08-07T11:28:03.013Z,38.53
2022-08-07T11:28:53.556Z,39.69
2022-08-07T11:30:18.532Z,40.07
2022-08-07T11:30:50.176Z,39.24
2022-08-07T11:31:49.179Z,35.99
2022-08-07T11:32:49.155Z,37.87
2022-08-07T11:33:58.663Z,39.47
2022-08-07T11:34:50.179Z,40.55
2022-08-07T11:35:59.608Z,39.63
2022-08-07T11:36:50.088Z,39.51
2022-08-07T11:37:58.479Z,39.51
2022-08-07T11:38:50.653Z,39.10
2022-08-07T11:40:00.206Z,37.04
2022-08-07T11:40:50.115Z,39.51
2022-08-07T11:42:00.131Z,38.90
2022-08-07T11:42:50.524Z,40.76
2022-08-07T11:44:11.018Z,38.67
2022-08-07T11:44:52.311Z,36.27
2022-08-07T11:45:53.631Z,36.97
2022-08-07T11:46:48.988Z,38.57
2022-08-07T11:47:59.035Z,37.49
2022-08-07T11:49:27.470Z,37.13
2022-08-07T11:50:25.148Z,39.71
2022-08-07T11:50:57.680Z,38.40
2022-08-07T11:51:49.900Z,36.23
2022-08-07T11:52:48.891Z,40.76
2022-08-07T11:54:00.815Z,37.79
2022-08-07T11:54:54.927Z,37.51
2022-08-07T11:56:24.703Z,36.41
2022-08-07T11:56:52.203Z,36.51
2022-08-07T11:58:00.670Z,39.28
2022-08-07T11:58:50.033Z,39.58
2022-08-07T12:00:11.670Z,37.00
2022-08-07T12:01:01.672Z,37.18
2022-08-07T12:01:58.657Z,37.36
2022-08-07T12:02:52.116Z,38.04
2022-08-07T12:03:48.802Z,37.52
2022-08-07T12:04:48.752Z,39.22
2022-08-07T12:05:49.416Z,37.23
2022-08-07T12:06:56.230Z,35.45
2022-08-07T12:07:53.412Z,38.02
2022-08-07T12:08:49.681Z,35.64
2022-08-07T12:09:48.690Z,34.86
2022-08-07T12:10:48.662Z,36.71
2022-08-07T12:12:09.393Z,37.51
2022-08-07T12:12:49.634Z,36.04
2022-08-07T12:13:48.624Z,36.63
2022-08-07T12:14:53.781Z,34.44
2022-08-07T12:16:06.110Z,39.76
2022-08-07T12:16:49.584Z,35.30
2022-08-07T12:17:58.523Z,36.17
2022-08-07T12:18:50.731Z,34.20
2022-08-07T12:20:02.621Z,36.78
2022-08-07T12:20:49.561Z,36.30
2022-08-07T12:22:36.669Z,35.71
2022-08-07T12:22:56.318Z,36.65
2022-08-07T12:24:06.705Z,36.55
2022-08-07T12:24:52.405Z,35.86
2022-08-07T12:26:03.130Z,38.13
2022-08-07T12:26:49.605Z,36.88
2022-08-07T12:28:08.789Z,39.67
2022-08-07T12:28:49.714Z,38.60
2022-08-07T12:29:51.515Z,38.88
2022-08-07T12:30:53.302Z,38.39
2022-08-07T12:32:01.459Z,38.80
2022-08-07T12:32:49.395Z,38.31
2022-08-07T12:34:00.957Z,37.62
2022-08-07T12:34:56.203Z,38.80
2022-08-07T12:35:57.944Z,40.26
2022-08-07T12:36:50.257Z,40.45
2022-08-07T12:38:11.661Z,38.63
2022-08-07T12:38:57.634Z,37.15
2022-08-07T12:39:51.033Z,37.62
2022-08-07T12:40:50.375Z,38.81
2022-08-07T12:41:49.907Z,38.12
2022-08-07T12:42:52.668Z,37.54
2022-08-07T12:44:03.950Z,36.16
2022-08-07T12:44:49.255Z,36.55
2022-08-07T12:45:52.413Z,38.65
2022-08-07T12:46:48.212Z,39.22
2022-08-07T12:47:49.302Z,35.57
2022-08-07T12:48:52.903Z,36.97
2022-08-07T12:49:51.738Z,40.15
2022-08-07T12:50:49.474Z,37.76
2022-08-07T12:52:11.835Z,39.64
2022-08-07T12:52:52.925Z,37.45